sensor_id;sensor_type;location;lat;lon;timestamp;noise_LAeq;noise_LA_min;noise_LA_max;noise_LA01;noise_LA95
67900;Laerm;54700;51.796;10.956;2023-07-16T00:02:10;39.93;33.49;52.47;;
67900;Laerm;54700;51.796;10.956;2023-07-16T00:04:37;49.02;34.03;63.50;;
67900;Laerm;54700;51.796;10.956;2023-07-16T00:07:05;50.53;33.61;67.19;;
67900;Laerm;54700;51.796;10.956;2023-07-16T00:09:32;55.36;33.21;71.03;;
67900;Laerm;54700;51.796;10.956;2023-07-16T00:12:00;46.69;33.14;64.50;;
67900;Laerm;54700;51.796;10.956;2023-07-16T00:14:27;49.44;32.94;65.46;;
67900;Laerm;54700;51.796;10.956;2023-07-16T00:16:54;38.35;31.18;52.92;;
67900;Laerm;54700;51.796;10.956;2023-07-16T00:19:21;54.56;31.34;72.44;;
67900;Laerm;54700;51.796;10.956;2023-07-16T00:21:48;54.71;32.46;69.73;;
67900;Laerm;54700;51.796;10.956;2023-07-16T00:24:15;38.89;35.09;61.97;;
67900;Laerm;54700;51.796;10.956;2023-07-16T00:26:42;37.20;33.45;51.63;;
67900;Laerm;54700;51.796;10.956;2023-07-16T00:29:10;51.27;32.49;70.40;;
67900;Laerm;54700;51.796;10.956;2023-07-16T00:31:37;52.06;32.65;68.03;;
67900;Laerm;54700;51.796;10.956;2023-07-16T00:34:04;35.99;31.46;51.52;;
67900;Laerm;54700;51.796;10.956;2023-07-16T00:36:31;36.82;31.90;54.90;;
67900;Laerm;54700;51.796;10.956;2023-07-16T00:38:58;34.18;29.99;46.87;;
67900;Laerm;54700;51.796;10.956;2023-07-16T00:41:25;32.82;28.88;46.53;;
67900;Laerm;54700;51.796;10.956;2023-07-16T00:43:52;32.79;28.13;46.10;;
67900;Laerm;54700;51.796;10.956;2023-07-16T00:46:22;51.30;28.59;67.05;;
67900;Laerm;54700;51.796;10.956;2023-07-16T00:48:50;50.17;29.05;67.33;;
67900;Laerm;54700;51.796;10.956;2023-07-16T00:51:17;49.52;28.86;65.26;;
67900;Laerm;54700;51.796;10.956;2023-07-16T00:53:45;48.11;30.44;64.96;;
67900;Laerm;54700;51.796;10.956;2023-07-16T00:56:16;49.15;28.82;66.08;;
67900;Laerm;54700;51.796;10.956;2023-07-16T00:58:45;50.05;28.47;66.50;;
67900;Laerm;54700;51.796;10.956;2023-07-16T01:01:13;37.87;28.42;49.11;;
67900;Laerm;54700;51.796;10.956;2023-07-16T01:03:41;51.32;28.76;68.44;;
67900;Laerm;54700;51.796;10.956;2023-07-16T01:06:12;33.77;28.63;44.78;;
67900;Laerm;54700;51.796;10.956;2023-07-16T01:08:44;35.01;29.61;43.80;;
67900;Laerm;54700;51.796;10.956;2023-07-16T01:11:12;49.90;29.01;65.74;;
67900;Laerm;54700;51.796;10.956;2023-07-16T01:13:39;31.83;27.88;44.80;;
67900;Laerm;54700;51.796;10.956;2023-07-16T01:16:18;51.83;28.08;70.57;;
67900;Laerm;54700;51.796;10.956;2023-07-16T01:18:46;50.42;29.39;67.88;;
67900;Laerm;54700;51.796;10.956;2023-07-16T01:21:14;41.38;30.69;58.20;;
67900;Laerm;54700;51.796;10.956;2023-07-16T01:23:56;49.78;30.16;66.76;;
67900;Laerm;54700;51.796;10.956;2023-07-16T01:26:36;35.38;30.22;42.88;;
67900;Laerm;54700;51.796;10.956;2023-07-16T01:29:29;34.42;29.69;49.03;;
67900;Laerm;54700;51.796;10.956;2023-07-16T01:31:59;31.46;27.84;41.98;;
67900;Laerm;54700;51.796;10.956;2023-07-16T01:34:30;52.72;27.90;64.83;;
67900;Laerm;54700;51.796;10.956;2023-07-16T01:37:00;32.08;27.81;48.67;;
67900;Laerm;54700;51.796;10.956;2023-07-16T01:39:27;49.26;28.24;68.28;;
67900;Laerm;54700;51.796;10.956;2023-07-16T01:41:54;30.96;28.09;38.29;;
67900;Laerm;54700;51.796;10.956;2023-07-16T01:44:23;52.24;28.87;71.13;;
67900;Laerm;54700;51.796;10.956;2023-07-16T01:47:03;33.02;27.93;45.83;;
67900;Laerm;54700;51.796;10.956;2023-07-16T01:49:31;32.30;27.90;46.06;;
67900;Laerm;54700;51.796;10.956;2023-07-16T01:51:59;31.02;27.74;43.15;;
67900;Laerm;54700;51.796;10.956;2023-07-16T01:54:27;50.45;28.89;66.49;;
67900;Laerm;54700;51.796;10.956;2023-07-16T01:56:54;47.73;28.23;66.47;;
67900;Laerm;54700;51.796;10.956;2023-07-16T01:59:22;31.50;28.24;40.84;;
67900;Laerm;54700;51.796;10.956;2023-07-16T02:05:11;33.11;28.39;49.00;;
67900;Laerm;54700;51.796;10.956;2023-07-16T02:07:38;33.50;29.43;40.54;;
67900;Laerm;54700;51.796;10.956;2023-07-16T02:10:06;29.67;27.47;43.16;;
67900;Laerm;54700;51.796;10.956;2023-07-16T02:12:33;29.14;27.16;45.65;;
67900;Laerm;54700;51.796;10.956;2023-07-16T02:15:01;32.09;27.30;42.29;;
67900;Laerm;54700;51.796;10.956;2023-07-16T02:17:28;50.85;27.55;64.10;;
67900;Laerm;54700;51.796;10.956;2023-07-16T02:19:55;29.30;27.24;37.43;;
67900;Laerm;54700;51.796;10.956;2023-07-16T02:22:22;52.93;27.42;66.34;;
67900;Laerm;54700;51.796;10.956;2023-07-16T02:24:48;47.93;28.91;62.39;;
67900;Laerm;54700;51.796;10.956;2023-07-16T02:27:16;51.93;27.83;68.04;;
67900;Laerm;54700;51.796;10.956;2023-07-16T02:29:46;47.69;27.79;62.91;;
67900;Laerm;54700;51.796;10.956;2023-07-16T02:32:16;49.70;27.46;67.25;;
67900;Laerm;54700;51.796;10.956;2023-07-16T02:34:43;49.10;27.07;66.97;;
67900;Laerm;54700;51.796;10.956;2023-07-16T02:37:10;50.49;27.35;68.28;;
67900;Laerm;54700;51.796;10.956;2023-07-16T02:39:38;49.90;27.50;67.01;;
67900;Laerm;54700;51.796;10.956;2023-07-16T02:42:05;45.00;27.26;62.73;;
67900;Laerm;54700;51.796;10.956;2023-07-16T02:44:32;39.12;27.51;58.16;;
67900;Laerm;54700;51.796;10.956;2023-07-16T02:46:59;36.10;27.74;52.14;;
67900;Laerm;54700;51.796;10.956;2023-07-16T02:49:27;36.33;27.60;49.67;;
67900;Laerm;54700;51.796;10.956;2023-07-16T02:51:54;47.88;27.44;63.92;;
67900;Laerm;54700;51.796;10.956;2023-07-16T02:54:21;38.12;27.25;52.89;;
67900;Laerm;54700;51.796;10.956;2023-07-16T02:56:48;38.54;27.20;57.09;;
67900;Laerm;54700;51.796;10.956;2023-07-16T02:59:15;49.68;27.76;66.47;;
67900;Laerm;54700;51.796;10.956;2023-07-16T03:01:42;32.20;27.35;42.17;;
67900;Laerm;54700;51.796;10.956;2023-07-16T03:04:09;49.54;28.44;64.61;;
67900;Laerm;54700;51.796;10.956;2023-07-16T03:06:37;52.36;29.29;69.70;;
67900;Laerm;54700;51.796;10.956;2023-07-16T03:09:04;52.13;28.64;70.68;;
67900;Laerm;54700;51.796;10.956;2023-07-16T03:11:31;38.61;28.77;54.47;;
67900;Laerm;54700;51.796;10.956;2023-07-16T03:13:58;50.82;28.70;64.08;;
67900;Laerm;54700;51.796;10.956;2023-07-16T03:16:25;38.05;28.42;55.18;;
67900;Laerm;54700;51.796;10.956;2023-07-16T03:18:52;36.30;28.73;50.24;;
67900;Laerm;54700;51.796;10.956;2023-07-16T03:21:19;53.86;29.59;67.75;;
67900;Laerm;54700;51.796;10.956;2023-07-16T03:23:48;51.63;29.19;67.37;;
67900;Laerm;54700;51.796;10.956;2023-07-16T03:26:14;41.58;30.46;56.74;;
67900;Laerm;54700;51.796;10.956;2023-07-16T03:28:41;50.61;31.08;67.17;;
67900;Laerm;54700;51.796;10.956;2023-07-16T03:31:08;57.58;31.92;69.57;;
67900;Laerm;54700;51.796;10.956;2023-07-16T03:33:35;54.49;30.57;65.92;;
67900;Laerm;54700;51.796;10.956;2023-07-16T03:36:05;48.81;30.63;66.23;;
67900;Laerm;54700;51.796;10.956;2023-07-16T03:38:32;50.44;30.73;67.67;;
67900;Laerm;54700;51.796;10.956;2023-07-16T03:41:01;42.14;30.43;59.28;;
67900;Laerm;54700;51.796;10.956;2023-07-16T03:43:28;50.75;30.04;67.98;;
67900;Laerm;54700;51.796;10.956;2023-07-16T03:45:55;55.76;29.99;68.80;;
67900;Laerm;54700;51.796;10.956;2023-07-16T03:48:22;52.31;29.87;69.73;;
67900;Laerm;54700;51.796;10.956;2023-07-16T03:50:49;54.51;30.21;68.92;;
67900;Laerm;54700;51.796;10.956;2023-07-16T03:53:16;55.84;28.88;70.64;;
67900;Laerm;54700;51.796;10.956;2023-07-16T03:55:43;52.76;29.03;67.43;;
67900;Laerm;54700;51.796;10.956;2023-07-16T03:58:11;48.68;28.24;64.81;;
67900;Laerm;54700;51.796;10.956;2023-07-16T04:00:40;35.68;28.63;53.44;;
67900;Laerm;54700;51.796;10.956;2023-07-16T04:03:08;54.35;28.67;68.18;;
67900;Laerm;54700;51.796;10.956;2023-07-16T04:05:35;53.36;30.11;67.44;;
67900;Laerm;54700;51.796;10.956;2023-07-16T04:08:02;38.33;29.12;53.88;;
67900;Laerm;54700;51.796;10.956;2023-07-16T04:10:29;48.58;30.72;63.60;;
67900;Laerm;54700;51.796;10.956;2023-07-16T04:12:56;51.24;29.64;64.67;;
67900;Laerm;54700;51.796;10.956;2023-07-16T04:15:33;54.22;32.27;67.80;;
67900;Laerm;54700;51.796;10.956;2023-07-16T04:18:00;51.67;29.21;64.63;;
67900;Laerm;54700;51.796;10.956;2023-07-16T04:20:27;54.99;31.43;68.30;;
67900;Laerm;54700;51.796;10.956;2023-07-16T04:22:56;50.49;30.71;68.94;;
67900;Laerm;54700;51.796;10.956;2023-07-16T04:25:23;55.06;31.79;69.51;;
67900;Laerm;54700;51.796;10.956;2023-07-16T04:27:52;54.03;29.81;70.37;;
67900;Laerm;54700;51.796;10.956;2023-07-16T04:30:20;55.33;28.50;72.54;;
67900;Laerm;54700;51.796;10.956;2023-07-16T04:32:48;53.39;29.22;68.69;;
67900;Laerm;54700;51.796;10.956;2023-07-16T04:35:15;50.35;28.95;66.92;;
67900;Laerm;54700;51.796;10.956;2023-07-16T04:37:42;48.80;30.97;64.08;;
67900;Laerm;54700;51.796;10.956;2023-07-16T04:40:09;39.43;29.78;50.80;;
67900;Laerm;54700;51.796;10.956;2023-07-16T04:42:36;52.83;30.14;66.77;;
67900;Laerm;54700;51.796;10.956;2023-07-16T04:45:04;39.51;30.53;52.77;;
67900;Laerm;54700;51.796;10.956;2023-07-16T04:47:31;51.31;30.08;65.86;;
67900;Laerm;54700;51.796;10.956;2023-07-16T04:50:00;56.38;31.41;69.95;;
67900;Laerm;54700;51.796;10.956;2023-07-16T04:52:27;52.66;28.91;68.71;;
67900;Laerm;54700;51.796;10.956;2023-07-16T04:54:55;54.00;32.60;70.40;;
67900;Laerm;54700;51.796;10.956;2023-07-16T04:57:22;50.16;33.08;64.79;;
67900;Laerm;54700;51.796;10.956;2023-07-16T04:59:49;51.09;34.53;66.03;;
67900;Laerm;54700;51.796;10.956;2023-07-16T05:02:16;51.42;36.34;66.92;;
67900;Laerm;54700;51.796;10.956;2023-07-16T05:04:43;53.31;36.87;67.14;;
67900;Laerm;54700;51.796;10.956;2023-07-16T05:07:14;52.78;33.24;68.77;;
67900;Laerm;54700;51.796;10.956;2023-07-16T05:09:42;56.43;35.54;69.45;;
67900;Laerm;54700;51.796;10.956;2023-07-16T05:12:09;54.58;37.62;68.41;;
67900;Laerm;54700;51.796;10.956;2023-07-16T05:14:43;54.14;39.15;68.93;;
67900;Laerm;54700;51.796;10.956;2023-07-16T05:17:10;42.18;34.81;58.17;;
67900;Laerm;54700;51.796;10.956;2023-07-16T05:19:37;50.27;35.35;66.10;;
67900;Laerm;54700;51.796;10.956;2023-07-16T05:22:04;51.10;35.97;66.46;;
67900;Laerm;54700;51.796;10.956;2023-07-16T05:24:33;56.90;37.03;72.01;;
67900;Laerm;54700;51.796;10.956;2023-07-16T05:27:00;47.88;35.09;64.42;;
67900;Laerm;54700;51.796;10.956;2023-07-16T05:29:28;55.54;35.43;72.27;;
67900;Laerm;54700;51.796;10.956;2023-07-16T05:31:55;62.26;42.95;78.99;;
67900;Laerm;54700;51.796;10.956;2023-07-16T05:34:22;55.04;38.02;72.64;;
67900;Laerm;54700;51.796;10.956;2023-07-16T05:36:49;52.06;37.20;65.76;;
67900;Laerm;54700;51.796;10.956;2023-07-16T05:39:19;54.01;37.73;68.41;;
67900;Laerm;54700;51.796;10.956;2023-07-16T05:41:47;53.42;36.08;68.55;;
67900;Laerm;54700;51.796;10.956;2023-07-16T05:44:14;52.50;35.48;65.91;;
67900;Laerm;54700;51.796;10.956;2023-07-16T05:46:41;44.15;38.44;59.04;;
67900;Laerm;54700;51.796;10.956;2023-07-16T05:49:10;52.27;37.99;64.83;;
67900;Laerm;54700;51.796;10.956;2023-07-16T05:51:37;54.30;35.04;67.50;;
67900;Laerm;54700;51.796;10.956;2023-07-16T05:54:04;53.00;37.17;67.96;;
67900;Laerm;54700;51.796;10.956;2023-07-16T05:56:32;57.78;39.51;71.05;;
67900;Laerm;54700;51.796;10.956;2023-07-16T05:59:00;56.57;39.27;73.79;;
67900;Laerm;54700;51.796;10.956;2023-07-16T06:01:27;51.98;37.03;64.48;;
67900;Laerm;54700;51.796;10.956;2023-07-16T06:03:54;48.44;41.60;56.21;;
67900;Laerm;54700;51.796;10.956;2023-07-16T06:06:21;52.46;37.39;65.61;;
67900;Laerm;54700;51.796;10.956;2023-07-16T06:08:47;57.24;42.09;68.26;;
67900;Laerm;54700;51.796;10.956;2023-07-16T06:11:15;57.20;38.65;72.85;;
67900;Laerm;54700;51.796;10.956;2023-07-16T06:13:42;55.52;34.40;70.48;;
67900;Laerm;54700;51.796;10.956;2023-07-16T06:16:10;54.04;38.67;69.89;;
67900;Laerm;54700;51.796;10.956;2023-07-16T06:18:37;54.00;38.08;67.86;;
67900;Laerm;54700;51.796;10.956;2023-07-16T06:21:04;56.66;38.28;71.39;;
67900;Laerm;54700;51.796;10.956;2023-07-16T06:23:31;56.39;37.73;68.87;;
67900;Laerm;54700;51.796;10.956;2023-07-16T06:25:58;58.99;41.49;70.22;;
67900;Laerm;54700;51.796;10.956;2023-07-16T06:28:25;51.61;35.93;67.19;;
67900;Laerm;54700;51.796;10.956;2023-07-16T06:30:52;54.28;35.41;69.53;;
67900;Laerm;54700;51.796;10.956;2023-07-16T06:33:20;57.36;32.20;73.43;;
67900;Laerm;54700;51.796;10.956;2023-07-16T06:35:47;56.85;35.10;68.90;;
67900;Laerm;54700;51.796;10.956;2023-07-16T06:38:14;56.34;33.66;68.20;;
67900;Laerm;54700;51.796;10.956;2023-07-16T06:40:46;56.72;34.74;69.36;;
67900;Laerm;54700;51.796;10.956;2023-07-16T06:43:13;57.83;36.86;67.46;;
67900;Laerm;54700;51.796;10.956;2023-07-16T06:45:40;56.34;38.38;70.53;;
67900;Laerm;54700;51.796;10.956;2023-07-16T06:48:07;53.78;32.63;68.66;;
67900;Laerm;54700;51.796;10.956;2023-07-16T06:50:35;54.94;32.30;71.29;;
67900;Laerm;54700;51.796;10.956;2023-07-16T06:53:02;57.59;35.01;69.69;;
67900;Laerm;54700;51.796;10.956;2023-07-16T06:55:29;56.13;32.81;68.80;;
67900;Laerm;54700;51.796;10.956;2023-07-16T06:57:56;58.01;36.47;68.14;;
67900;Laerm;54700;51.796;10.956;2023-07-16T07:00:25;56.87;34.64;68.97;;
67900;Laerm;54700;51.796;10.956;2023-07-16T07:02:52;54.64;32.66;68.58;;
67900;Laerm;54700;51.796;10.956;2023-07-16T07:05:19;58.91;36.49;71.51;;
67900;Laerm;54700;51.796;10.956;2023-07-16T07:07:51;57.66;33.86;77.17;;
67900;Laerm;54700;51.796;10.956;2023-07-16T07:10:18;59.33;33.74;68.56;;
67900;Laerm;54700;51.796;10.956;2023-07-16T07:12:45;57.20;34.93;69.88;;
67900;Laerm;54700;51.796;10.956;2023-07-16T07:15:11;57.04;34.28;68.69;;
67900;Laerm;54700;51.796;10.956;2023-07-16T07:17:39;54.90;33.36;68.11;;
67900;Laerm;54700;51.796;10.956;2023-07-16T07:20:09;57.65;37.95;68.79;;
67900;Laerm;54700;51.796;10.956;2023-07-16T07:22:36;53.45;33.72;69.31;;
67900;Laerm;54700;51.796;10.956;2023-07-16T07:25:05;57.21;32.59;70.36;;
67900;Laerm;54700;51.796;10.956;2023-07-16T07:27:33;58.54;38.17;68.83;;
67900;Laerm;54700;51.796;10.956;2023-07-16T07:30:00;59.99;43.16;75.01;;
67900;Laerm;54700;51.796;10.956;2023-07-16T07:32:30;59.95;42.83;69.04;;
67900;Laerm;54700;51.796;10.956;2023-07-16T07:34:57;57.09;37.51;68.23;;
67900;Laerm;54700;51.796;10.956;2023-07-16T07:37:24;56.03;36.73;70.24;;
67900;Laerm;54700;51.796;10.956;2023-07-16T07:39:52;57.75;39.84;69.52;;
67900;Laerm;54700;51.796;10.956;2023-07-16T07:42:20;65.00;36.49;82.31;;
67900;Laerm;54700;51.796;10.956;2023-07-16T07:44:47;56.04;36.06;68.15;;
67900;Laerm;54700;51.796;10.956;2023-07-16T07:47:20;57.10;35.27;72.17;;
67900;Laerm;54700;51.796;10.956;2023-07-16T07:49:47;59.89;36.86;70.25;;
67900;Laerm;54700;51.796;10.956;2023-07-16T07:52:14;57.70;46.01;67.68;;
67900;Laerm;54700;51.796;10.956;2023-07-16T07:54:41;59.08;44.77;70.27;;
67900;Laerm;54700;51.796;10.956;2023-07-16T07:57:08;58.36;46.33;69.00;;
67900;Laerm;54700;51.796;10.956;2023-07-16T07:59:36;56.33;38.84;67.54;;
67900;Laerm;54700;51.796;10.956;2023-07-16T08:02:04;60.03;39.86;71.05;;
67900;Laerm;54700;51.796;10.956;2023-07-16T08:04:31;57.28;42.39;70.53;;
67900;Laerm;54700;51.796;10.956;2023-07-16T08:06:58;56.73;41.83;71.19;;
67900;Laerm;54700;51.796;10.956;2023-07-16T08:09:26;58.51;40.03;68.99;;
67900;Laerm;54700;51.796;10.956;2023-07-16T08:11:53;57.64;40.20;72.44;;
67900;Laerm;54700;51.796;10.956;2023-07-16T08:14:20;61.40;39.41;77.73;;
67900;Laerm;54700;51.796;10.956;2023-07-16T08:16:48;56.84;38.56;70.30;;
67900;Laerm;54700;51.796;10.956;2023-07-16T08:19:16;62.07;36.47;75.09;;
67900;Laerm;54700;51.796;10.956;2023-07-16T08:21:43;58.37;38.75;69.89;;
67900;Laerm;54700;51.796;10.956;2023-07-16T08:24:10;61.17;45.53;75.03;;
67900;Laerm;54700;51.796;10.956;2023-07-16T08:26:39;58.76;37.97;70.78;;
67900;Laerm;54700;51.796;10.956;2023-07-16T08:29:06;59.77;41.49;73.39;;
67900;Laerm;54700;51.796;10.956;2023-07-16T08:31:33;60.75;38.41;70.98;;
67900;Laerm;54700;51.796;10.956;2023-07-16T08:34:03;58.69;37.73;69.84;;
67900;Laerm;54700;51.796;10.956;2023-07-16T08:36:33;59.77;33.93;69.90;;
67900;Laerm;54700;51.796;10.956;2023-07-16T08:39:00;50.45;32.95;66.61;;
67900;Laerm;54700;51.796;10.956;2023-07-16T08:41:28;56.75;37.05;66.97;;
67900;Laerm;54700;51.796;10.956;2023-07-16T08:43:56;58.54;41.58;69.31;;
67900;Laerm;54700;51.796;10.956;2023-07-16T08:46:23;59.93;40.92;73.06;;
67900;Laerm;54700;51.796;10.956;2023-07-16T08:48:50;62.76;39.63;78.54;;
67900;Laerm;54700;51.796;10.956;2023-07-16T08:51:21;58.10;32.63;69.74;;
67900;Laerm;54700;51.796;10.956;2023-07-16T08:53:48;59.78;41.69;68.43;;
67900;Laerm;54700;51.796;10.956;2023-07-16T08:56:15;61.44;38.30;75.74;;
67900;Laerm;54700;51.796;10.956;2023-07-16T08:58:43;59.87;38.40;71.00;;
67900;Laerm;54700;51.796;10.956;2023-07-16T09:01:12;56.53;34.10;70.24;;
67900;Laerm;54700;51.796;10.956;2023-07-16T09:03:39;58.57;33.32;78.88;;
67900;Laerm;54700;51.796;10.956;2023-07-16T09:06:06;58.65;37.62;69.10;;
67900;Laerm;54700;51.796;10.956;2023-07-16T09:08:34;61.36;41.66;71.51;;
67900;Laerm;54700;51.796;10.956;2023-07-16T09:11:01;56.40;39.23;68.76;;
67900;Laerm;54700;51.796;10.956;2023-07-16T09:13:29;55.58;37.01;67.12;;
67900;Laerm;54700;51.796;10.956;2023-07-16T09:15:57;57.28;37.00;69.59;;
67900;Laerm;54700;51.796;10.956;2023-07-16T09:18:25;61.85;36.07;73.02;;
67900;Laerm;54700;51.796;10.956;2023-07-16T09:20:54;58.72;40.53;68.29;;
67900;Laerm;54700;51.796;10.956;2023-07-16T09:23:24;59.76;35.80;70.29;;
67900;Laerm;54700;51.796;10.956;2023-07-16T09:25:53;58.57;36.29;69.60;;
67900;Laerm;54700;51.796;10.956;2023-07-16T09:28:21;57.46;34.52;67.09;;
67900;Laerm;54700;51.796;10.956;2023-07-16T09:30:51;58.60;37.38;69.56;;
67900;Laerm;54700;51.796;10.956;2023-07-16T09:33:20;59.20;33.68;68.29;;
67900;Laerm;54700;51.796;10.956;2023-07-16T09:35:48;58.89;36.85;68.58;;
67900;Laerm;54700;51.796;10.956;2023-07-16T09:38:16;57.83;35.08;68.06;;
67900;Laerm;54700;51.796;10.956;2023-07-16T09:40:44;60.05;36.42;74.76;;
67900;Laerm;54700;51.796;10.956;2023-07-16T09:43:13;59.00;39.42;70.15;;
67900;Laerm;54700;51.796;10.956;2023-07-16T09:45:41;58.62;36.32;69.19;;
67900;Laerm;54700;51.796;10.956;2023-07-16T09:48:09;59.59;35.96;69.50;;
67900;Laerm;54700;51.796;10.956;2023-07-16T09:50:36;59.42;37.46;68.13;;
67900;Laerm;54700;51.796;10.956;2023-07-16T09:53:05;56.90;34.00;68.76;;
67900;Laerm;54700;51.796;10.956;2023-07-16T09:55:35;57.82;34.51;70.21;;
67900;Laerm;54700;51.796;10.956;2023-07-16T09:58:06;59.30;40.72;74.98;;
67900;Laerm;54700;51.796;10.956;2023-07-16T10:00:39;55.82;37.96;67.17;;
67900;Laerm;54700;51.796;10.956;2023-07-16T10:03:08;57.89;38.13;71.70;;
67900;Laerm;54700;51.796;10.956;2023-07-16T10:05:37;57.14;38.29;68.85;;
67900;Laerm;54700;51.796;10.956;2023-07-16T10:08:15;58.08;41.62;68.58;;
67900;Laerm;54700;51.796;10.956;2023-07-16T10:10:45;60.01;40.13;70.07;;
67900;Laerm;54700;51.796;10.956;2023-07-16T10:13:13;60.35;36.76;71.39;;
67900;Laerm;54700;51.796;10.956;2023-07-16T10:15:52;56.78;37.72;68.35;;
67900;Laerm;54700;51.796;10.956;2023-07-16T10:18:24;60.10;38.22;71.56;;
67900;Laerm;54700;51.796;10.956;2023-07-16T10:20:53;57.13;40.71;68.65;;
67900;Laerm;54700;51.796;10.956;2023-07-16T10:23:20;58.60;40.51;72.54;;
67900;Laerm;54700;51.796;10.956;2023-07-16T10:26:08;57.93;36.46;69.99;;
67900;Laerm;54700;51.796;10.956;2023-07-16T10:28:36;61.27;39.75;73.62;;
67900;Laerm;54700;51.796;10.956;2023-07-16T10:31:05;58.68;39.67;68.68;;
67900;Laerm;54700;51.796;10.956;2023-07-16T10:33:33;60.92;42.00;71.88;;
67900;Laerm;54700;51.796;10.956;2023-07-16T10:36:03;59.03;34.94;71.02;;
67900;Laerm;54700;51.796;10.956;2023-07-16T10:38:30;58.90;36.48;73.03;;
67900;Laerm;54700;51.796;10.956;2023-07-16T10:40:58;55.56;35.30;67.31;;
67900;Laerm;54700;51.796;10.956;2023-07-16T10:43:25;56.32;34.91;68.20;;
67900;Laerm;54700;51.796;10.956;2023-07-16T10:45:54;56.47;34.61;74.58;;
67900;Laerm;54700;51.796;10.956;2023-07-16T10:48:25;60.45;37.82;69.76;;
67900;Laerm;54700;51.796;10.956;2023-07-16T10:50:53;60.16;40.50;70.80;;
67900;Laerm;54700;51.796;10.956;2023-07-16T10:53:20;51.00;37.49;67.16;;
67900;Laerm;54700;51.796;10.956;2023-07-16T10:55:47;58.51;40.26;69.67;;
67900;Laerm;54700;51.796;10.956;2023-07-16T10:58:15;58.48;36.12;68.62;;
67900;Laerm;54700;51.796;10.956;2023-07-16T11:00:42;59.12;38.60;68.61;;
67900;Laerm;54700;51.796;10.956;2023-07-16T11:03:14;59.47;36.43;71.18;;
67900;Laerm;54700;51.796;10.956;2023-07-16T11:05:46;56.85;36.93;68.55;;
67900;Laerm;54700;51.796;10.956;2023-07-16T11:08:21;59.35;39.14;69.06;;
67900;Laerm;54700;51.796;10.956;2023-07-16T11:10:53;61.38;37.69;72.59;;
67900;Laerm;54700;51.796;10.956;2023-07-16T11:13:25;59.07;38.25;76.48;;
67900;Laerm;54700;51.796;10.956;2023-07-16T11:15:54;58.94;35.27;70.36;;
67900;Laerm;54700;51.796;10.956;2023-07-16T11:18:23;56.87;35.74;69.63;;
67900;Laerm;54700;51.796;10.956;2023-07-16T11:20:54;55.58;34.69;68.13;;
67900;Laerm;54700;51.796;10.956;2023-07-16T11:23:23;56.47;34.59;67.44;;
67900;Laerm;54700;51.796;10.956;2023-07-16T11:25:52;59.88;42.37;71.87;;
67900;Laerm;54700;51.796;10.956;2023-07-16T11:28:20;55.43;37.53;66.87;;
67900;Laerm;54700;51.796;10.956;2023-07-16T11:30:46;57.96;41.48;68.75;;
67900;Laerm;54700;51.796;10.956;2023-07-16T11:33:13;57.19;35.00;68.76;;
67900;Laerm;54700;51.796;10.956;2023-07-16T11:35:40;57.37;36.25;69.91;;
67900;Laerm;54700;51.796;10.956;2023-07-16T11:38:09;59.85;37.68;70.74;;
67900;Laerm;54700;51.796;10.956;2023-07-16T11:40:37;57.77;33.85;69.27;;
67900;Laerm;54700;51.796;10.956;2023-07-16T11:43:10;56.95;35.07;69.72;;
67900;Laerm;54700;51.796;10.956;2023-07-16T11:45:39;54.87;34.27;66.70;;
67900;Laerm;54700;51.796;10.956;2023-07-16T11:48:06;58.44;37.30;70.54;;
67900;Laerm;54700;51.796;10.956;2023-07-16T11:50:33;57.34;40.45;68.40;;
67900;Laerm;54700;51.796;10.956;2023-07-16T11:53:01;59.63;36.41;71.07;;
67900;Laerm;54700;51.796;10.956;2023-07-16T11:55:29;57.83;37.25;69.53;;
67900;Laerm;54700;51.796;10.956;2023-07-16T11:57:56;57.15;40.03;69.05;;
67900;Laerm;54700;51.796;10.956;2023-07-16T12:00:25;59.84;41.84;73.58;;
67900;Laerm;54700;51.796;10.956;2023-07-16T12:02:52;59.41;38.68;69.87;;
67900;Laerm;54700;51.796;10.956;2023-07-16T12:05:20;57.27;37.76;68.57;;
67900;Laerm;54700;51.796;10.956;2023-07-16T12:07:47;58.52;40.19;70.10;;
67900;Laerm;54700;51.796;10.956;2023-07-16T12:10:16;59.14;38.22;70.54;;
67900;Laerm;54700;51.796;10.956;2023-07-16T12:12:45;58.03;42.34;68.57;;
67900;Laerm;54700;51.796;10.956;2023-07-16T12:15:12;57.90;40.13;71.68;;
67900;Laerm;54700;51.796;10.956;2023-07-16T12:17:38;58.19;41.76;68.20;;
67900;Laerm;54700;51.796;10.956;2023-07-16T12:20:06;56.28;37.65;68.53;;
67900;Laerm;54700;51.796;10.956;2023-07-16T12:22:33;57.84;38.38;70.67;;
67900;Laerm;54700;51.796;10.956;2023-07-16T12:25:01;60.01;39.21;72.37;;
67900;Laerm;54700;51.796;10.956;2023-07-16T12:27:28;56.73;36.53;68.17;;
67900;Laerm;54700;51.796;10.956;2023-07-16T12:29:56;55.46;35.48;68.00;;
67900;Laerm;54700;51.796;10.956;2023-07-16T12:32:23;57.36;37.87;66.61;;
67900;Laerm;54700;51.796;10.956;2023-07-16T12:34:50;56.93;38.68;67.85;;
67900;Laerm;54700;51.796;10.956;2023-07-16T12:37:17;54.57;37.73;67.50;;
67900;Laerm;54700;51.796;10.956;2023-07-16T12:39:44;55.74;35.89;67.71;;
67900;Laerm;54700;51.796;10.956;2023-07-16T12:42:11;59.91;44.01;72.26;;
67900;Laerm;54700;51.796;10.956;2023-07-16T12:44:38;54.36;36.88;66.47;;
67900;Laerm;54700;51.796;10.956;2023-07-16T12:47:06;60.10;38.51;69.15;;
67900;Laerm;54700;51.796;10.956;2023-07-16T12:49:34;59.26;38.84;70.45;;
67900;Laerm;54700;51.796;10.956;2023-07-16T12:52:01;59.45;41.60;76.35;;
67900;Laerm;54700;51.796;10.956;2023-07-16T12:54:28;61.44;41.73;75.18;;
67900;Laerm;54700;51.796;10.956;2023-07-16T12:56:55;57.47;37.20;74.42;;
67900;Laerm;54700;51.796;10.956;2023-07-16T12:59:22;58.96;40.27;70.48;;
67900;Laerm;54700;51.796;10.956;2023-07-16T13:01:50;61.11;42.58;78.10;;
67900;Laerm;54700;51.796;10.956;2023-07-16T13:04:18;59.22;39.98;68.86;;
67900;Laerm;54700;51.796;10.956;2023-07-16T13:06:45;58.51;41.39;67.88;;
67900;Laerm;54700;51.796;10.956;2023-07-16T13:09:13;55.41;37.71;68.83;;
67900;Laerm;54700;51.796;10.956;2023-07-16T13:11:40;58.38;41.01;73.12;;
67900;Laerm;54700;51.796;10.956;2023-07-16T13:14:07;61.39;44.35;77.15;;
67900;Laerm;54700;51.796;10.956;2023-07-16T13:16:34;58.09;43.48;71.53;;
67900;Laerm;54700;51.796;10.956;2023-07-16T13:19:01;56.68;42.03;66.93;;
67900;Laerm;54700;51.796;10.956;2023-07-16T13:21:31;59.21;42.54;69.71;;
67900;Laerm;54700;51.796;10.956;2023-07-16T13:23:58;57.82;41.00;68.97;;
67900;Laerm;54700;51.796;10.956;2023-07-16T13:26:25;58.94;42.74;70.55;;
67900;Laerm;54700;51.796;10.956;2023-07-16T13:28:52;57.81;38.97;68.70;;
67900;Laerm;54700;51.796;10.956;2023-07-16T13:31:19;59.78;36.50;70.79;;
67900;Laerm;54700;51.796;10.956;2023-07-16T13:33:46;58.07;34.74;73.67;;
67900;Laerm;54700;51.796;10.956;2023-07-16T13:36:12;56.53;38.29;66.69;;
67900;Laerm;54700;51.796;10.956;2023-07-16T13:38:41;59.33;40.28;70.53;;
67900;Laerm;54700;51.796;10.956;2023-07-16T13:41:09;55.45;38.01;67.42;;